createdAt,value
2022-12-18T00:02:27.569Z,29.00
2022-12-18T00:06:32.044Z,28.73
2022-12-18T00:10:37.086Z,30.70
2022-12-18T00:14:40.642Z,24.47
2022-12-18T00:18:45.801Z,22.77
2022-12-18T00:22:49.283Z,23.10
2022-12-18T00:26:54.449Z,29.60
2022-12-18T00:31:03.620Z,20.03
2022-12-18T00:35:08.874Z,23.53
2022-12-18T00:39:15.339Z,18.30
2022-12-18T00:43:20.725Z,21.10
2022-12-18T00:47:24.447Z,17.83
2022-12-18T00:51:28.661Z,20.90
2022-12-18T00:55:33.168Z,17.30
2022-12-18T00:59:38.939Z,21.33
2022-12-18T01:03:42.933Z,21.23
2022-12-18T01:07:46.776Z,18.27
2022-12-18T01:11:50.759Z,17.90
2022-12-18T01:15:56.449Z,16.40
2022-12-18T01:20:01.057Z,22.77
2022-12-18T01:24:05.068Z,14.90
2022-12-18T01:28:08.920Z,19.80
2022-12-18T01:32:14.492Z,15.33
2022-12-18T01:36:21.531Z,18.80
2022-12-18T01:40:25.751Z,18.83
2022-12-18T01:44:57.596Z,21.87
2022-12-18T01:49:04.432Z,17.00
2022-12-18T01:53:14.304Z,17.43
2022-12-18T01:57:18.618Z,16.17
2022-12-18T02:01:26.313Z,14.87
2022-12-18T02:05:47.991Z,16.53
2022-12-18T02:09:59.831Z,13.23
2022-12-18T02:14:15.012Z,14.10
2022-12-18T02:18:24.313Z,16.90
2022-12-18T02:22:41.110Z,21.67
2022-12-18T02:26:52.471Z,15.30
2022-12-18T02:30:58.793Z,13.90
2022-12-18T02:35:04.710Z,14.77
2022-12-18T02:39:11.734Z,15.30
2022-12-18T02:43:18.527Z,13.87
2022-12-18T02:47:24.485Z,14.40
2022-12-18T02:51:36.457Z,14.50
2022-12-18T02:55:53.558Z,15.73
2022-12-18T03:00:05.199Z,8.57
2022-12-18T03:04:15.058Z,13.47
2022-12-18T03:08:23.130Z,11.90
2022-12-18T03:12:34.109Z,11.93
2022-12-18T03:16:40.346Z,13.03
2022-12-18T03:20:47.563Z,11.53
2022-12-18T03:24:52.206Z,10.93
2022-12-18T03:29:00.446Z,13.00
2022-12-18T03:33:13.077Z,13.40
2022-12-18T03:37:17.490Z,13.97
2022-12-18T03:41:30.628Z,18.40
2022-12-18T03:45:39.651Z,12.57
2022-12-18T03:49:51.907Z,14.17
2022-12-18T03:54:00.691Z,12.80
2022-12-18T03:58:09.630Z,11.00
2022-12-18T04:02:13.878Z,16.07
2022-12-18T04:06:40.490Z,9.57
2022-12-18T04:10:44.844Z,13.80
2022-12-18T04:14:48.744Z,10.27
2022-12-18T04:18:52.927Z,13.07
2022-12-18T04:22:59.384Z,13.87
2022-12-18T04:27:04.301Z,15.43
2022-12-18T04:31:10.386Z,7.90
2022-12-18T04:35:14.381Z,15.20
2022-12-18T04:39:19.741Z,7.63
2022-12-18T04:43:24.007Z,8.13
2022-12-18T04:47:27.812Z,13.83
2022-12-18T04:51:32.185Z,18.43
2022-12-18T04:55:37.635Z,9.83
2022-12-18T04:59:42.513Z,10.07
2022-12-18T05:03:46.409Z,13.10
2022-12-18T05:07:50.806Z,6.43
2022-12-18T05:11:56.876Z,9.63
2022-12-18T05:16:01.784Z,7.60
2022-12-18T05:20:06.028Z,15.23
2022-12-18T05:24:10.121Z,9.30
2022-12-18T05:28:15.034Z,13.40
2022-12-18T05:32:18.788Z,7.00
2022-12-18T05:36:22.372Z,9.13
2022-12-18T05:40:26.048Z,5.17
2022-12-18T05:44:31.823Z,7.40
2022-12-18T05:48:36.168Z,12.53
2022-12-18T05:52:39.768Z,5.53
2022-12-18T05:56:48.491Z,15.80
2022-12-18T06:00:54.554Z,6.90
2022-12-18T06:04:58.747Z,9.17
2022-12-18T06:09:02.541Z,7.30
2022-12-18T06:13:06.929Z,6.23
2022-12-18T06:17:11.874Z,8.93
2022-12-18T06:21:15.399Z,12.20
2022-12-18T06:25:19.500Z,9.60
2022-12-18T06:29:23.153Z,12.80
2022-12-18T06:33:30.444Z,13.70
2022-12-18T06:37:34.060Z,12.07
2022-12-18T06:41:37.894Z,11.97
2022-12-18T06:45:42.296Z,11.87
2022-12-18T06:49:48.391Z,16.73
2022-12-18T06:53:52.151Z,17.83
2022-12-18T06:57:56.278Z,15.53
2022-12-18T07:01:59.923Z,14.83
2022-12-18T07:06:05.877Z,14.63
2022-12-18T07:10:09.863Z,9.10
2022-12-18T07:14:13.397Z,14.20
2022-12-18T07:18:17.068Z,14.10
2022-12-18T07:22:22.168Z,13.50
2022-12-18T07:26:25.880Z,16.40
2022-12-18T07:30:29.668Z,17.30
2022-12-18T07:34:33.216Z,16.90
2022-12-18T07:38:38.708Z,16.30
2022-12-18T07:42:43.031Z,23.27
2022-12-18T07:46:47.327Z,22.10
2022-12-18T07:50:51.461Z,20.87
2022-12-18T07:54:56.846Z,17.47
2022-12-18T07:59:01.181Z,19.07
2022-12-18T08:03:04.925Z,22.40
2022-12-18T08:07:11.936Z,18.73
2022-12-18T08:11:16.876Z,14.43
2022-12-18T08:15:20.722Z,19.17
2022-12-18T08:19:24.272Z,16.60
2022-12-18T08:23:28.971Z,21.10
2022-12-18T08:27:34.124Z,28.07
2022-12-18T08:31:37.987Z,20.20
2022-12-18T08:35:45.780Z,21.17
2022-12-18T08:39:49.896Z,15.73
2022-12-18T08:44:12.383Z,15.93
2022-12-18T08:48:21.875Z,26.30
2022-12-18T08:52:26.019Z,27.23
2022-12-18T08:56:31.032Z,32.60
2022-12-18T09:00:36.448Z,27.60
2022-12-18T09:04:41.078Z,19.10
2022-12-18T09:08:45.072Z,22.97
2022-12-18T09:12:48.621Z,12.37
2022-12-18T09:16:54.403Z,15.00
2022-12-18T09:20:58.105Z,23.53
2022-12-18T09:25:01.545Z,18.83
2022-12-18T09:29:05.924Z,19.20
2022-12-18T09:33:11.351Z,21.30
2022-12-18T09:37:14.960Z,17.70
2022-12-18T09:41:38.117Z,18.63
2022-12-18T09:45:45.978Z,16.27
2022-12-18T09:49:55.209Z,18.97
2022-12-18T09:54:03.050Z,14.03
2022-12-18T09:58:22.024Z,18.83
2022-12-18T10:02:28.043Z,19.43
2022-12-18T10:06:41.821Z,16.47
2022-12-18T10:10:51.395Z,22.10
2022-12-18T10:15:00.514Z,23.70
2022-12-18T10:19:15.805Z,24.10
2022-12-18T10:23:28.669Z,23.30
2022-12-18T10:27:33.026Z,30.67
2022-12-18T10:31:37.281Z,24.67
2022-12-18T10:35:44.184Z,24.27
2022-12-18T10:40:22.400Z,29.93
2022-12-18T10:44:27.286Z,27.73
2022-12-18T10:48:32.282Z,27.70
2022-12-18T10:52:37.772Z,22.27
2022-12-18T10:56:46.806Z,25.43
2022-12-18T11:01:09.399Z,23.33
2022-12-18T11:05:31.167Z,21.47
2022-12-18T11:09:36.568Z,25.60
2022-12-18T11:13:42.405Z,26.30
2022-12-18T11:17:50.014Z,26.97
2022-12-18T11:21:53.680Z,26.03
2022-12-18T11:26:02.907Z,21.50
2022-12-18T11:30:23.078Z,21.70
2022-12-18T11:34:31.364Z,28.60
2022-12-18T11:38:37.947Z,20.47
2022-12-18T11:42:48.139Z,24.03
2022-12-18T11:46:58.663Z,24.30
2022-12-18T11:51:05.403Z,27.50
2022-12-18T11:55:16.432Z,25.70
2022-12-18T11:59:35.288Z,24.10
2022-12-18T12:04:05.011Z,29.50
2022-12-18T12:08:19.142Z,23.20
2022-12-18T12:12:49.070Z,20.87
2022-12-18T12:17:00.042Z,19.30
2022-12-18T12:21:12.417Z,22.07
2022-12-18T12:25:35.662Z,21.40
2022-12-18T12:29:52.338Z,31.53
2022-12-18T12:38:30.019Z,18.43
2022-12-18T12:42:55.862Z,27.00
2022-12-18T12:47:04.652Z,30.87
2022-12-18T12:51:18.573Z,23.07
2022-12-18T12:55:26.318Z,36.00
2022-12-18T12:59:41.219Z,39.50
2022-12-18T13:03:51.347Z,30.00
2022-12-18T13:07:59.068Z,29.53
2022-12-18T13:12:29.081Z,31.40
2022-12-18T13:16:32.463Z,30.70
2022-12-18T13:20:37.381Z,37.87
2022-12-18T13:24:42.386Z,38.00
2022-12-18T13:28:55.592Z,38.73
2022-12-18T13:33:56.305Z,37.67
2022-12-18T13:38:02.255Z,35.23
2022-12-18T13:42:58.218Z,27.97
2022-12-18T13:47:04.767Z,37.57
2022-12-18T13:51:12.197Z,35.10
2022-12-18T13:55:21.034Z,39.23
2022-12-18T13:59:26.530Z,38.40
2022-12-18T14:03:33.063Z,39.03
2022-12-18T14:07:41.889Z,45.73
2022-12-18T14:11:52.403Z,34.47
2022-12-18T14:15:56.689Z,35.90
2022-12-18T14:20:02.801Z,30.80
2022-12-18T14:24:08.867Z,34.53
2022-12-18T14:28:18.047Z,36.10
2022-12-18T14:32:23.696Z,33.00
2022-12-18T14:36:30.816Z,32.50
2022-12-18T14:40:34.451Z,38.40
2022-12-18T14:44:50.787Z,33.83
2022-12-18T14:49:02.680Z,52.00
2022-12-18T14:53:07.329Z,50.50
2022-12-18T14:57:24.973Z,38.40
2022-12-18T15:01:32.601Z,34.03
2022-12-18T15:05:38.130Z,37.77
2022-12-18T15:09:46.066Z,39.30
2022-12-18T15:13:50.305Z,37.27
2022-12-18T15:18:01.441Z,42.13
2022-12-18T15:22:06.771Z,40.10
2022-12-18T15:26:14.487Z,47.13
2022-12-18T15:30:26.496Z,40.37
2022-12-18T15:34:32.989Z,45.80
2022-12-18T15:38:37.662Z,34.00
2022-12-18T15:43:02.558Z,46.23
2022-12-18T15:47:10.615Z,47.90
2022-12-18T15:51:19.217Z,34.47
2022-12-18T15:56:01.007Z,53.13
2022-12-18T16:00:09.328Z,46.60
2022-12-18T16:04:16.226Z,49.73
2022-12-18T16:08:24.385Z,50.73
2022-12-18T16:12:29.210Z,41.10
2022-12-18T16:16:34.414Z,39.87
2022-12-18T16:20:40.309Z,40.40
2022-12-18T16:24:45.438Z,38.67
2022-12-18T16:28:50.448Z,33.40
2022-12-18T16:32:56.986Z,40.07
2022-12-18T16:37:05.726Z,43.47
2022-12-18T16:41:37.455Z,72.23
2022-12-18T16:45:41.620Z,40.40
2022-12-18T16:49:52.238Z,38.87
2022-12-18T16:53:58.264Z,40.50
2022-12-18T16:58:04.046Z,41.87
2022-12-18T17:02:09.938Z,35.30
2022-12-18T17:06:16.209Z,38.47
2022-12-18T17:10:22.296Z,44.90
2022-12-18T17:14:31.114Z,30.37
2022-12-18T17:18:37.217Z,26.20
2022-12-18T17:22:52.258Z,30.73
2022-12-18T17:26:56.979Z,36.90
2022-12-18T17:31:01.290Z,38.73
2022-12-18T17:35:07.450Z,43.80
2022-12-18T17:39:21.065Z,36.70
2022-12-18T17:43:25.162Z,27.77
2022-12-18T17:47:29.776Z,35.67
2022-12-18T17:51:35.592Z,32.53
2022-12-18T17:55:41.688Z,37.50
2022-12-18T17:59:46.887Z,40.20
2022-12-18T18:03:53.716Z,34.53
2022-12-18T18:07:59.257Z,40.27
2022-12-18T18:12:23.641Z,36.13
2022-12-18T18:16:28.492Z,41.53
2022-12-18T18:20:41.679Z,42.97
2022-12-18T18:24:47.179Z,39.90
2022-12-18T18:28:58.500Z,34.33
2022-12-18T18:33:10.330Z,30.60
2022-12-18T18:37:17.937Z,40.30
2022-12-18T18:41:24.750Z,34.20
2022-12-18T18:45:30.521Z,39.60
2022-12-18T18:49:35.954Z,46.80
2022-12-18T18:53:41.404Z,36.83
2022-12-18T18:57:47.035Z,45.47
2022-12-18T19:01:53.705Z,40.53
2022-12-18T19:06:00.213Z,37.57
2022-12-18T19:10:05.523Z,38.87
2022-12-18T19:14:12.863Z,39.60
2022-12-18T19:18:25.077Z,44.63
2022-12-18T19:22:29.533Z,41.23
2022-12-18T19:26:35.196Z,41.00
2022-12-18T19:30:42.393Z,40.83
2022-12-18T19:34:50.113Z,29.70
2022-12-18T19:39:03.060Z,43.67
2022-12-18T19:43:07.717Z,39.07
2022-12-18T19:47:12.584Z,45.23
2022-12-18T19:51:23.810Z,44.63
2022-12-18T19:55:30.004Z,38.20
2022-12-18T19:59:36.492Z,36.10
2022-12-18T20:03:44.250Z,41.87
2022-12-18T20:07:59.689Z,39.47
2022-12-18T20:12:04.308Z,40.47
2022-12-18T20:16:11.348Z,36.50
2022-12-18T20:20:17.097Z,38.13
2022-12-18T20:24:25.539Z,40.77
2022-12-18T20:28:29.900Z,37.00
2022-12-18T20:32:37.269Z,40.37
2022-12-18T20:36:42.231Z,35.37
2022-12-18T20:41:43.167Z,36.93
2022-12-18T20:45:49.906Z,37.40
2022-12-18T20:49:53.873Z,36.67
2022-12-18T20:54:00.786Z,33.37
2022-12-18T20:58:06.002Z,36.10
2022-12-18T21:02:12.289Z,35.70
2022-12-18T21:06:19.299Z,42.50
2022-12-18T21:10:23.014Z,34.97
2022-12-18T21:14:29.988Z,34.33
2022-12-18T21:18:33.959Z,35.73
2022-12-18T21:22:38.580Z,40.30
2022-12-18T21:26:45.787Z,39.77
2022-12-18T21:30:51.141Z,39.47
2022-12-18T21:35:08.506Z,36.63
2022-12-18T21:39:12.816Z,41.43
2022-12-18T21:43:35.305Z,41.70
2022-12-18T21:47:42.918Z,38.23
2022-12-18T21:51:47.197Z,36.23
2022-12-18T21:55:58.868Z,37.67
2022-12-18T22:00:03.541Z,38.93
2022-12-18T22:04:16.981Z,36.30
2022-12-18T22:08:22.565Z,38.20
2022-12-18T22:12:44.080Z,38.47
2022-12-18T22:16:49.502Z,33.60
2022-12-18T22:21:04.783Z,41.57
2022-12-18T22:25:10.593Z,39.33
2022-12-18T22:29:40.555Z,42.33
2022-12-18T22:33:44.762Z,34.80
2022-12-18T22:37:54.327Z,28.63
2022-12-18T22:41:59.189Z,32.90
2022-12-18T22:46:17.056Z,33.90
2022-12-18T22:50:22.958Z,36.93
2022-12-18T22:54:31.323Z,26.83
2022-12-18T22:58:35.914Z,38.33
2022-12-18T23:02:40.715Z,36.07
2022-12-18T23:06:45.918Z,33.03
2022-12-18T23:10:55.413Z,31.87
2022-12-18T23:14:59.426Z,35.10
2022-12-18T23:19:03.628Z,37.60
2022-12-18T23:23:07.316Z,34.80
2022-12-18T23:27:12.385Z,39.20
2022-12-18T23:31:18.217Z,34.90
2022-12-18T23:35:22.211Z,39.17
2022-12-18T23:39:29.329Z,36.00
2022-12-18T23:43:35.476Z,36.90
2022-12-18T23:47:39.482Z,39.00
2022-12-18T23:51:44.509Z,33.33
2022-12-18T23:55:49.923Z,41.30
2022-12-18T23:59:57.145Z,32.27
